createdAt,value
2018-12-22T06:59:12.222Z,23.3
2018-12-22T07:09:11.431Z,23.5
2018-12-22T07:19:10.649Z,23.6
2018-12-22T07:29:09.852Z,23.7
2018-12-22T07:39:09.052Z,23.5
2018-12-22T07:49:08.273Z,23.3
2018-12-22T07:59:07.518Z,23.3
2018-12-22T08:09:06.789Z,23.6
2018-12-22T08:19:06.078Z,23.6
2018-12-22T08:29:05.370Z,23.6
2018-12-22T08:39:04.651Z,23.8
2018-12-22T08:49:03.937Z,23.8
2018-12-22T08:59:03.159Z,23.7
2018-12-22T09:09:02.370Z,23.6
2018-12-22T09:19:01.577Z,23.6
2018-12-22T09:29:00.780Z,23.5
2018-12-22T09:38:59.994Z,23.5
2018-12-22T09:48:59.199Z,23.6
2018-12-22T09:58:58.409Z,23.7
2018-12-22T10:08:57.614Z,23.8
2018-12-22T10:18:56.819Z,23.8
2018-12-22T10:28:56.032Z,23.7
2018-12-22T10:38:55.319Z,23.6
2018-12-22T10:48:54.468Z,23.6
2018-12-22T10:58:53.689Z,23.6
2018-12-22T11:08:52.904Z,23.5
2018-12-22T11:18:52.120Z,23.5
2018-12-22T11:28:51.337Z,23.5
2018-12-22T11:38:50.559Z,23.5
2018-12-22T11:48:49.778Z,23.6
2018-12-22T11:58:48.987Z,23.5
2018-12-22T12:08:48.207Z,23.4
2018-12-22T12:18:47.418Z,23.4
2018-12-22T12:28:46.638Z,23.3
2018-12-22T12:38:45.862Z,23.3
2018-12-22T12:48:45.073Z,23.4
2018-12-22T12:58:44.274Z,23.5
2018-12-22T13:08:43.484Z,23.4
2018-12-22T13:18:42.691Z,23.4
2018-12-22T13:28:41.910Z,23.5
2018-12-22T13:38:41.108Z,23.5
2018-12-22T13:48:40.777Z,23.4
2018-12-22T13:58:39.528Z,23.4
2018-12-22T14:08:38.740Z,23.4
2018-12-22T14:18:37.943Z,23.3
2018-12-22T14:28:37.155Z,23.2
2018-12-22T14:38:36.374Z,23.3
2018-12-22T14:48:35.573Z,23.2
2018-12-22T14:58:34.791Z,23.1
2018-12-22T15:08:34.001Z,23
2018-12-22T15:18:33.213Z,22.9
2018-12-22T15:28:32.420Z,22.9
2018-12-22T15:38:31.636Z,22.8
2018-12-22T15:48:30.853Z,22.8
2018-12-22T15:58:30.060Z,23.1
2018-12-22T16:08:29.278Z,23.1
2018-12-22T16:18:28.487Z,23.1
2018-12-22T16:28:27.707Z,23.1
2018-12-22T16:38:27.017Z,23.1
2018-12-22T16:48:26.141Z,23.1
2018-12-22T16:58:25.350Z,23.1
2018-12-22T17:08:24.568Z,23.1
2018-12-22T17:18:23.794Z,23.2
2018-12-22T17:28:28.157Z,23.1
2018-12-22T17:38:22.228Z,23.1
2018-12-22T17:48:21.438Z,23.1
2018-12-22T17:58:20.670Z,23.2
2018-12-22T18:08:19.889Z,23.2
2018-12-22T18:18:19.120Z,23.1
2018-12-22T18:28:18.338Z,23
2018-12-22T18:38:17.569Z,23
2018-12-22T18:48:16.780Z,23
2018-12-22T18:58:16.012Z,23
2018-12-22T19:08:15.230Z,22.9
2018-12-22T19:18:14.438Z,23.1
2018-12-22T19:28:13.656Z,23.3
2018-12-22T19:38:12.878Z,23.4
2018-12-22T19:48:12.090Z,23.5
2018-12-22T19:58:11.306Z,23.6
2018-12-22T20:08:10.522Z,23.7
2018-12-22T20:18:09.743Z,23.6
2018-12-22T20:28:08.954Z,23.6
2018-12-22T20:38:08.167Z,23.6
2018-12-22T20:48:07.388Z,23.5
2018-12-22T20:58:06.604Z,23.4
2018-12-22T21:08:05.819Z,23.3
2018-12-22T21:18:05.032Z,23.3
2018-12-22T21:28:04.257Z,23.2
2018-12-22T21:38:03.466Z,23.1
2018-12-22T21:48:02.683Z,23.1
2018-12-22T21:58:01.895Z,23.2
2018-12-22T22:08:01.105Z,23.1
2018-12-22T22:18:00.316Z,23
2018-12-22T22:27:59.527Z,22.9
2018-12-22T22:37:58.737Z,22.9
2018-12-22T22:47:57.961Z,22.8
2018-12-22T22:57:57.168Z,22.8
2018-12-22T23:07:56.371Z,22.8
2018-12-22T23:17:55.587Z,22.8
2018-12-22T23:27:54.800Z,22.8
2018-12-22T23:37:54.004Z,22.9
2018-12-22T23:47:53.217Z,23
2018-12-22T23:57:52.429Z,22.9
